Time;durP1;ratioP1;P1;durP2;ratioP2;P2;SDS_P1;SDS_P2;PMS_P1;PMS_P2;Temp;Humidity;BMP_temperature;BMP_pressure;BME280_temperature;BME280_humidity;BME280_pressure;Samples;Min_cycle;Max_cycle;Signal;HPM_P1;HPM_P2
2023/03/15 00:00:44;;;;;;;3.00;0.95;;;14.50;99.90;;;;;;5055626;28;20101;-72
2023/03/15 00:03:11;;;;;;;1.42;0.75;;;14.50;99.90;;;;;;5064674;28;20037;-69
2023/03/15 00:05:41;;;;;;;4.75;1.00;;;14.50;99.90;;;;;;5075433;28;20044;-70
2023/03/15 00:08:07;;;;;;;2.40;0.82;;;14.50;99.90;;;;;;5073818;28;20035;-73
2023/03/15 00:10:33;;;;;;;4.32;1.08;;;14.50;99.90;;;;;;5074317;28;20024;-73
2023/03/15 00:12:59;;;;;;;3.20;0.90;;;14.40;99.90;;;;;;5074186;28;20036;-72
2023/03/15 00:15:25;;;;;;;4.93;1.25;;;14.50;99.90;;;;;;5074281;28;20108;-72
2023/03/15 00:17:51;;;;;;;3.83;1.00;;;14.50;99.90;;;;;;5073895;28;20120;-73
2023/03/15 00:20:18;;;;;;;3.63;1.13;;;14.40;99.90;;;;;;5075061;28;20115;-73
2023/03/15 00:22:44;;;;;;;2.75;1.02;;;14.50;99.90;;;;;;5074999;28;20086;-73
2023/03/15 00:25:10;;;;;;;5.93;1.38;;;14.40;99.90;;;;;;5074155;28;20095;-73
2023/03/15 00:27:36;;;;;;;2.70;1.00;;;14.50;99.90;;;;;;5074989;28;20043;-72
2023/03/15 00:30:03;;;;;;;3.45;1.00;;;14.50;99.90;;;;;;5075270;28;20024;-71
2023/03/15 00:32:31;;;;;;;3.20;0.95;;;14.50;99.90;;;;;;5073352;28;20126;-72
2023/03/15 00:34:57;;;;;;;2.97;0.80;;;14.40;99.90;;;;;;5076607;28;20115;-72
2023/03/15 00:37:24;;;;;;;5.75;1.30;;;14.50;99.90;;;;;;5077508;28;20053;-74
2023/03/15 00:39:50;;;;;;;2.33;0.80;;;14.40;99.90;;;;;;5078049;28;20047;-72
2023/03/15 00:42:16;;;;;;;3.05;0.93;;;14.40;99.90;;;;;;5077554;28;20024;-71
2023/03/15 00:44:43;;;;;;;4.40;1.30;;;14.40;99.90;;;;;;5078413;28;20443;-74
2023/03/15 00:47:11;;;;;;;3.63;1.10;;;14.40;99.90;;;;;;5057327;28;20470;-74
2023/03/15 00:49:37;;;;;;;4.15;0.90;;;14.40;99.90;;;;;;5058991;28;20028;-70
2023/03/15 00:52:04;;;;;;;3.05;0.82;;;14.50;99.90;;;;;;5077423;28;20078;-70
2023/03/15 00:54:32;;;;;;;3.08;0.80;;;14.40;99.90;;;;;;5077155;28;20403;-71
2023/03/15 00:56:59;;;;;;;2.22;0.85;;;14.40;99.90;;;;;;5077143;28;20052;-71
2023/03/15 00:59:27;;;;;;;3.58;0.90;;;14.40;99.90;;;;;;5078047;28;20029;-71
2023/03/15 01:01:52;;;;;;;4.50;1.20;;;14.40;99.90;;;;;;5077948;28;20028;-72
2023/03/15 01:04:21;;;;;;;3.70;1.20;;;14.40;99.90;;;;;;5076095;28;20024;-72
2023/03/15 01:06:47;;;;;;;3.40;0.98;;;14.30;99.90;;;;;;5076910;28;20036;-72
2023/03/15 01:09:14;;;;;;;3.45;1.27;;;14.30;99.90;;;;;;5076753;28;20036;-75
2023/03/15 01:11:40;;;;;;;5.45;1.10;;;14.30;99.90;;;;;;5078468;28;20086;-72
2023/03/15 01:14:07;;;;;;;3.40;0.88;;;14.30;99.90;;;;;;5076915;28;20095;-72
2023/03/15 01:16:33;;;;;;;4.30;1.15;;;14.30;99.90;;;;;;5077051;28;20336;-73
2023/03/15 01:19:00;;;;;;;4.30;1.23;;;14.20;99.90;;;;;;5075968;28;20047;-72
2023/03/15 01:21:26;;;;;;;3.30;1.20;;;14.20;99.90;;;;;;5077822;28;20024;-72
2023/03/15 01:23:52;;;;;;;3.95;1.00;;;14.20;99.90;;;;;;5076301;28;20032;-73
2023/03/15 01:26:21;;;;;;;4.45;1.10;;;14.20;99.90;;;;;;5076491;28;20032;-72
2023/03/15 01:28:47;;;;;;;6.28;1.23;;;14.20;99.90;;;;;;5077494;28;20033;-73
2023/03/15 01:31:20;;;;;;;5.30;1.23;;;14.20;99.90;;;;;;5076704;28;20025;-76
2023/03/15 01:33:46;;;;;;;7.30;1.10;;;14.20;99.90;;;;;;5075562;28;20055;-73
2023/03/15 01:36:12;;;;;;;4.57;1.10;;;14.10;99.90;;;;;;5076730;28;20056;-71
2023/03/15 01:38:38;;;;;;;2.67;0.88;;;14.10;99.90;;;;;;5075885;28;20035;-72
2023/03/15 01:41:04;;;;;;;4.03;1.05;;;14.10;99.90;;;;;;5060259;28;20025;-72
2023/03/15 01:43:31;;;;;;;2.83;0.90;;;14.10;99.90;;;;;;5039490;28;20416;-72
2023/03/15 01:46:00;;;;;;;2.90;1.00;;;14.10;99.90;;;;;;5056518;28;20071;-70
2023/03/15 01:48:30;;;;;;;4.28;1.17;;;14.10;99.90;;;;;;5058759;28;20323;-72
2023/03/15 01:50:57;;;;;;;3.65;0.98;;;14.10;99.90;;;;;;5076677;28;20025;-72
2023/03/15 01:53:25;;;;;;;5.70;0.93;;;14.10;99.90;;;;;;5075952;28;20033;-70
2023/03/15 01:55:53;;;;;;;3.20;1.00;;;14.10;99.90;;;;;;5077357;28;20082;-69
2023/03/15 01:58:26;;;;;;;5.25;1.23;;;14.10;99.90;;;;;;5075655;28;20491;-71
2023/03/15 02:00:53;;;;;;;3.75;0.98;;;14.10;99.90;;;;;;5076529;28;20024;-71
2023/03/15 02:03:29;;;;;;;4.00;1.30;;;14.10;99.90;;;;;;5074684;28;20028;-70
2023/03/15 02:06:00;;;;;;;3.88;0.85;;;14.10;99.90;;;;;;5076429;28;20029;-71
2023/03/15 02:08:58;;;;;;;3.67;0.80;;;14.10;99.90;;;;;;5075510;28;20055;-73
2023/03/15 02:11:27;;;;;;;6.70;1.27;;;14.10;99.90;;;;;;5056158;28;20029;-71
2023/03/15 02:13:55;;;;;;;2.92;0.90;;;14.10;99.90;;;;;;5065138;28;20028;-71
2023/03/15 02:16:22;;;;;;;2.17;0.88;;;14.10;99.90;;;;;;5076072;28;20043;-73
2023/03/15 02:18:55;;;;;;;4.18;0.98;;;14.20;99.90;;;;;;5074434;28;20028;-72
2023/03/15 02:21:48;;;;;;;4.20;0.98;;;14.20;99.90;;;;;;5075912;28;20439;-74
2023/03/15 02:24:44;;;;;;;2.22;0.75;;;14.20;99.90;;;;;;5058952;28;20037;-76
2023/03/15 02:27:10;;;;;;;4.47;0.98;;;14.20;99.90;;;;;;5075900;28;20063;-75
2023/03/15 02:29:37;;;;;;;3.05;0.95;;;14.20;99.90;;;;;;5075909;28;20028;-74
2023/03/15 02:32:04;;;;;;;3.67;0.90;;;14.20;99.90;;;;;;5075741;28;20028;-75
2023/03/15 02:34:30;;;;;;;3.80;1.00;;;14.20;99.90;;;;;;5075021;28;20028;-76
2023/03/15 02:36:56;;;;;;;2.00;0.82;;;14.10;99.90;;;;;;5076831;28;20035;-76
2023/03/15 02:39:23;;;;;;;2.20;0.80;;;14.20;99.90;;;;;;5074885;28;20301;-72
2023/03/15 02:41:58;;;;;;;3.25;1.00;;;14.10;99.90;;;;;;5076595;28;20029;-72
2023/03/15 02:44:30;;;;;;;3.10;1.10;;;14.10;99.90;;;;;;5075807;28;20028;-77
2023/03/15 02:47:04;;;;;;;3.67;0.90;;;14.10;99.90;;;;;;5076490;28;20050;-75
2023/03/15 02:49:38;;;;;;;2.45;0.80;;;14.10;99.90;;;;;;5074630;28;20027;-76
2023/03/15 02:52:06;;;;;;;4.13;0.93;;;14.10;99.90;;;;;;5075578;28;20020;-70
2023/03/15 02:54:33;;;;;;;3.30;0.90;;;14.10;99.90;;;;;;5058181;28;20120;-70
2023/03/15 02:57:02;;;;;;;3.55;1.15;;;14.10;99.90;;;;;;5074522;28;20029;-69
2023/03/15 02:59:29;;;;;;;2.92;0.85;;;14.10;99.90;;;;;;5074660;28;20028;-72
2023/03/15 03:01:55;;;;;;;2.83;0.80;;;14.10;99.90;;;;;;5055305;28;20075;-73
2023/03/15 03:04:22;;;;;;;1.83;0.90;;;14.10;99.90;;;;;;5054175;28;20036;-72
2023/03/15 03:06:48;;;;;;;3.55;0.95;;;14.10;99.90;;;;;;5054944;28;20037;-73
2023/03/15 03:09:18;;;;;;;2.63;0.80;;;14.10;99.90;;;;;;5067197;28;20054;-72
2023/03/15 03:11:45;;;;;;;3.20;0.90;;;14.10;99.90;;;;;;5075643;28;20351;-73
2023/03/15 03:14:12;;;;;;;2.45;0.90;;;14.10;99.90;;;;;;5074911;28;20039;-72
2023/03/15 03:16:40;;;;;;;3.45;0.70;;;14.10;99.90;;;;;;5042724;28;20041;-72
2023/03/15 03:19:06;;;;;;;3.75;0.90;;;14.10;99.90;;;;;;5065062;28;20032;-72
2023/03/15 03:21:32;;;;;;;6.55;1.10;;;14.10;99.90;;;;;;5054625;28;20036;-72
2023/03/15 03:23:58;;;;;;;3.47;0.77;;;14.10;99.90;;;;;;5054318;28;20044;-72
2023/03/15 03:26:26;;;;;;;2.55;0.98;;;14.10;99.90;;;;;;5074551;28;20424;-72
2023/03/15 03:28:55;;;;;;;1.85;0.80;;;14.10;99.90;;;;;;5074486;28;20017;-73
2023/03/15 03:31:24;;;;;;;3.00;0.90;;;14.10;99.90;;;;;;5074881;28;20424;-72
2023/03/15 03:33:52;;;;;;;2.30;0.90;;;14.10;99.90;;;;;;5042133;28;20043;-73
2023/03/15 03:36:18;;;;;;;3.30;0.88;;;14.10;99.90;;;;;;5074669;28;20024;-73
2023/03/15 03:38:45;;;;;;;3.30;0.88;;;14.10;99.90;;;;;;5073945;28;20442;-71
2023/03/15 03:41:13;;;;;;;1.95;0.75;;;14.10;99.90;;;;;;5074535;28;20055;-71
2023/03/15 03:43:40;;;;;;;3.10;0.90;;;14.10;99.90;;;;;;5074131;28;20025;-73
2023/03/15 03:46:07;;;;;;;2.97;0.90;;;14.10;99.90;;;;;;5074691;28;20037;-73
2023/03/15 03:48:37;;;;;;;3.35;0.90;;;14.10;99.90;;;;;;5073236;28;20197;-74
2023/03/15 03:51:03;;;;;;;3.47;0.85;;;14.10;99.90;;;;;;5074529;28;20086;-68
2023/03/15 03:53:29;;;;;;;4.72;0.88;;;14.10;99.90;;;;;;5074078;28;20037;-68
2023/03/15 03:55:55;;;;;;;2.03;0.90;;;14.10;99.90;;;;;;5057802;28;20141;-68
2023/03/15 03:58:22;;;;;;;4.70;1.00;;;14.10;99.90;;;;;;5074049;28;20379;-68
2023/03/15 04:00:53;;;;;;;3.58;1.00;;;14.10;99.90;;;;;;5054522;28;20025;-70
2023/03/15 04:03:25;;;;;;;2.75;0.85;;;14.10;99.90;;;;;;5060565;28;20036;-69
2023/03/15 04:05:57;;;;;;;1.85;0.70;;;14.10;99.90;;;;;;5074645;28;20089;-70
2023/03/15 04:08:25;;;;;;;4.93;0.90;;;14.10;99.90;;;;;;5074925;28;20029;-70
2023/03/15 04:10:53;;;;;;;3.00;0.77;;;14.20;99.90;;;;;;5044996;28;20036;-71
2023/03/15 04:13:20;;;;;;;1.92;0.90;;;14.10;99.90;;;;;;5077971;28;20443;-71
2023/03/15 04:15:47;;;;;;;2.60;0.65;;;14.10;99.90;;;;;;5061531;28;20029;-71
2023/03/15 04:18:14;;;;;;;2.85;0.80;;;14.10;99.90;;;;;;5077103;28;20166;-70
2023/03/15 04:20:45;;;;;;;5.45;1.00;;;14.10;99.90;;;;;;5062032;28;20029;-72
2023/03/15 04:23:12;;;;;;;3.72;0.98;;;14.10;99.90;;;;;;5061396;28;20032;-71
2023/03/15 04:26:04;;;;;;;1.95;0.73;;;14.10;99.90;;;;;;5063351;28;20063;-70
2023/03/15 04:28:49;;;;;;;1.85;0.75;;;14.10;99.90;;;;;;5061174;28;20442;-71
2023/03/15 04:31:44;;;;;;;3.40;1.13;;;14.10;99.90;;;;;;5077854;28;20031;-71
2023/03/15 04:34:19;;;;;;;2.47;0.80;;;14.10;99.90;;;;;;5076974;28;20036;-67
2023/03/15 04:37:07;;;;;;;4.28;0.77;;;14.10;99.90;;;;;;5077863;28;20037;-68
2023/03/15 04:39:48;;;;;;;1.88;0.77;;;14.10;99.90;;;;;;5077448;28;20093;-68
2023/03/15 04:42:28;;;;;;;2.47;0.88;;;14.10;99.90;;;;;;5077782;28;20037;-70
2023/03/15 04:45:10;;;;;;;2.05;0.77;;;14.10;99.90;;;;;;5078247;28;20111;-70
2023/03/15 04:47:38;;;;;;;3.83;0.98;;;14.10;99.90;;;;;;5077471;28;20140;-72
2023/03/15 04:50:23;;;;;;;2.50;0.88;;;14.10;99.90;;;;;;5078261;28;20031;-71
2023/03/15 04:53:00;;;;;;;2.25;0.80;;;14.10;99.90;;;;;;5062328;28;20075;-68
2023/03/15 04:55:45;;;;;;;4.50;1.02;;;14.10;99.90;;;;;;5078263;28;20028;-68
2023/03/15 04:58:17;;;;;;;1.92;0.90;;;14.10;99.90;;;;;;5078267;28;20051;-68
2023/03/15 05:00:56;;;;;;;1.90;0.73;;;14.10;99.90;;;;;;5078253;28;20029;-68
2023/03/15 05:03:28;;;;;;;2.75;0.75;;;14.10;99.90;;;;;;5077304;28;20083;-68
2023/03/15 05:05:57;;;;;;;3.22;0.80;;;14.10;99.90;;;;;;5078249;28;20062;-71
2023/03/15 05:08:38;;;;;;;2.78;0.77;;;14.10;99.90;;;;;;5076900;28;20098;-72
2023/03/15 05:11:23;;;;;;;4.28;1.00;;;14.10;99.90;;;;;;5078305;28;20339;-71
2023/03/15 05:14:27;;;;;;;2.63;0.82;;;14.10;99.90;;;;;;5069409;28;20044;-71
2023/03/15 05:17:06;;;;;;;2.47;0.73;;;14.10;99.90;;;;;;5077309;28;20060;-71
2023/03/15 05:20:00;;;;;;;5.45;1.00;;;14.10;99.90;;;;;;5053577;28;20048;-71
2023/03/15 05:22:36;;;;;;;5.45;0.85;;;14.10;99.90;;;;;;5076215;28;20036;-72
2023/03/15 05:25:20;;;;;;;4.30;1.00;;;14.10;99.90;;;;;;5078240;28;20040;-71
2023/03/15 05:28:08;;;;;;;3.47;1.00;;;14.10;99.90;;;;;;5076703;28;20590;-71
2023/03/15 05:31:04;;;;;;;2.70;0.90;;;14.10;99.90;;;;;;5054978;28;20083;-70
2023/03/15 05:34:03;;;;;;;2.05;0.77;;;14.10;99.90;;;;;;5067209;28;20403;-72
2023/03/15 05:36:50;;;;;;;3.28;1.10;;;14.00;99.90;;;;;;5069749;28;20056;-71
2023/03/15 05:39:48;;;;;;;2.05;0.75;;;14.10;99.90;;;;;;5054230;28;20068;-71
2023/03/15 05:42:28;;;;;;;4.40;0.90;;;14.10;99.90;;;;;;5062047;28;20112;-71
2023/03/15 05:44:57;;;;;;;2.42;0.90;;;14.00;99.90;;;;;;5077254;28;20035;-69
2023/03/15 05:47:43;;;;;;;3.30;1.05;;;14.10;99.90;;;;;;5044824;28;20796;-70
2023/03/15 05:50:35;;;;;;;3.67;1.00;;;14.10;99.90;;;;;;5074326;28;20458;-82
2023/03/15 05:53:10;;;;;;;3.10;0.98;;;14.00;99.90;;;;;;5077468;28;20040;-72
2023/03/15 05:55:43;;;;;;;3.58;0.98;;;14.00;99.90;;;;;;5076125;28;20037;-73
2023/03/15 05:58:38;;;;;;;2.35;0.90;;;14.00;99.90;;;;;;5062842;28;20036;-80
2023/03/15 06:01:24;;;;;;;3.65;0.77;;;14.10;99.90;;;;;;5038627;28;20048;-72
2023/03/15 06:04:28;;;;;;;3.17;0.80;;;14.00;99.90;;;;;;5056840;28;20028;-73
2023/03/15 06:06:56;;;;;;;3.15;0.98;;;14.00;99.90;;;;;;5063504;28;20119;-72
2023/03/15 06:09:22;;;;;;;5.53;1.10;;;14.10;99.90;;;;;;5076081;28;20032;-72
2023/03/15 06:11:48;;;;;;;4.35;1.00;;;14.10;99.90;;;;;;5058999;28;20028;-72
2023/03/15 06:14:15;;;;;;;2.42;0.77;;;14.10;99.90;;;;;;5055855;28;20029;-68
2023/03/15 06:16:50;;;;;;;3.10;0.82;;;14.10;99.90;;;;;;5076410;28;20419;-69
2023/03/15 06:19:17;;;;;;;3.78;0.90;;;14.10;99.90;;;;;;5074964;28;20032;-71
2023/03/15 06:21:43;;;;;;;3.88;1.10;;;14.10;99.90;;;;;;5057670;28;20362;-71
2023/03/15 06:24:15;;;;;;;3.03;0.90;;;14.10;99.90;;;;;;5075158;28;20028;-73
2023/03/15 06:26:41;;;;;;;2.63;0.90;;;14.20;99.90;;;;;;5075263;28;20125;-73
2023/03/15 06:29:08;;;;;;;2.40;0.88;;;14.20;99.90;;;;;;5075085;28;20033;-71
2023/03/15 06:31:34;;;;;;;2.38;0.90;;;14.20;99.90;;;;;;5058040;28;20032;-72
2023/03/15 06:34:03;;;;;;;3.72;1.15;;;14.20;99.90;;;;;;5066432;28;20028;-69
2023/03/15 06:36:30;;;;;;;2.35;0.90;;;14.20;99.90;;;;;;5076766;28;20477;-70
2023/03/15 06:38:56;;;;;;;5.40;0.90;;;14.20;99.90;;;;;;5074689;28;20066;-70
2023/03/15 06:41:22;;;;;;;3.33;1.10;;;14.20;99.90;;;;;;5076750;28;20032;-70
2023/03/15 06:43:52;;;;;;;2.65;1.20;;;14.20;99.90;;;;;;5074483;28;20182;-70
2023/03/15 06:46:18;;;;;;;3.08;1.08;;;14.20;99.90;;;;;;5075006;28;20067;-69
2023/03/15 06:48:44;;;;;;;2.83;1.00;;;14.20;99.90;;;;;;5073663;28;20040;-70
2023/03/15 06:51:11;;;;;;;4.97;1.27;;;14.20;99.90;;;;;;5075502;28;20029;-70
2023/03/15 06:53:37;;;;;;;4.50;1.30;;;14.20;99.90;;;;;;5075267;28;20086;-71
2023/03/15 06:56:03;;;;;;;5.75;1.45;;;14.20;99.90;;;;;;5074893;28;20052;-71
2023/03/15 06:58:29;;;;;;;3.40;1.10;;;14.20;99.90;;;;;;5074859;28;20032;-69
2023/03/15 07:00:55;;;;;;;4.10;1.15;;;14.20;99.90;;;;;;5076037;28;20041;-70
2023/03/15 07:03:22;;;;;;;3.58;1.23;;;14.20;99.90;;;;;;5074950;28;20028;-70
2023/03/15 07:05:51;;;;;;;6.00;1.42;;;14.20;99.90;;;;;;5074936;28;20039;-70
2023/03/15 07:08:18;;;;;;;4.28;1.05;;;14.20;99.90;;;;;;5075737;28;20032;-70
2023/03/15 07:10:45;;;;;;;6.70;1.15;;;14.20;99.90;;;;;;5075052;28;20301;-70
2023/03/15 07:13:12;;;;;;;4.45;1.30;;;14.20;99.90;;;;;;5076013;28;20037;-70
2023/03/15 07:15:38;;;;;;;8.85;1.20;;;14.20;99.90;;;;;;5076088;28;20029;-70
2023/03/15 07:18:04;;;;;;;2.65;1.20;;;14.20;99.90;;;;;;5073463;28;20028;-70
2023/03/15 07:20:30;;;;;;;3.55;1.20;;;14.20;99.90;;;;;;5076155;28;20421;-69
2023/03/15 07:22:56;;;;;;;4.28;1.40;;;14.20;99.90;;;;;;5075571;28;20033;-70
2023/03/15 07:25:22;;;;;;;5.47;1.40;;;14.20;99.90;;;;;;5075803;28;20033;-69
2023/03/15 07:27:52;;;;;;;4.72;1.30;;;14.20;99.90;;;;;;5075343;28;20043;-69
2023/03/15 07:30:19;;;;;;;3.85;1.17;;;14.20;99.90;;;;;;5075511;28;20044;-69
2023/03/15 07:32:45;;;;;;;5.85;1.55;;;14.20;99.90;;;;;;5074132;28;20395;-70
2023/03/15 07:35:12;;;;;;;4.22;1.20;;;14.20;99.90;;;;;;5075345;28;20096;-69
2023/03/15 07:37:38;;;;;;;5.75;1.63;;;14.20;99.90;;;;;;5071685;28;20047;-79
2023/03/15 07:40:08;;;;;;;4.50;1.05;;;14.20;99.90;;;;;;5066109;28;20056;-70
2023/03/15 07:42:35;;;;;;;4.65;1.20;;;14.20;99.90;;;;;;5074816;28;20032;-74
2023/03/15 07:45:03;;;;;;;4.60;1.10;;;14.20;99.90;;;;;;5074322;28;20415;-70
2023/03/15 07:47:30;;;;;;;5.00;1.25;;;14.20;99.90;;;;;;5073910;28;20040;-70
2023/03/15 07:49:56;;;;;;;8.45;1.40;;;14.30;99.90;;;;;;5074318;28;20507;-70
2023/03/15 07:52:22;;;;;;;4.97;1.50;;;14.30;99.90;;;;;;5057329;28;20116;-70
2023/03/15 07:54:48;;;;;;;4.90;1.20;;;14.30;99.90;;;;;;5074550;28;20115;-70
2023/03/15 07:57:14;;;;;;;6.22;1.75;;;14.30;99.90;;;;;;5065932;28;20384;-69
2023/03/15 07:59:40;;;;;;;5.03;1.20;;;14.30;99.90;;;;;;5054462;28;20039;-69
2023/03/15 08:02:08;;;;;;;4.57;1.17;;;14.30;99.90;;;;;;5057711;28;20790;-69
2023/03/15 08:04:34;;;;;;;3.15;1.33;;;14.30;99.90;;;;;;5073632;28;20415;-69
2023/03/15 08:07:00;;;;;;;3.58;1.15;;;14.30;99.90;;;;;;5074251;28;20054;-69
2023/03/15 08:09:26;;;;;;;3.78;1.30;;;14.30;99.90;;;;;;5074495;28;20416;-71
2023/03/15 08:11:52;;;;;;;3.47;1.10;;;14.30;99.90;;;;;;5074676;28;20043;-69
2023/03/15 08:14:18;;;;;;;3.10;1.00;;;14.30;99.90;;;;;;5074477;28;20112;-70
2023/03/15 08:16:44;;;;;;;3.25;1.20;;;14.40;99.90;;;;;;5073655;28;20025;-70
2023/03/15 08:19:10;;;;;;;3.58;1.20;;;14.40;99.90;;;;;;5073256;28;20323;-70
2023/03/15 08:21:36;;;;;;;2.28;1.02;;;14.30;99.90;;;;;;5074748;28;20033;-70
2023/03/15 08:24:02;;;;;;;5.30;1.30;;;14.40;99.90;;;;;;5074103;28;20029;-69
2023/03/15 08:26:29;;;;;;;4.60;1.25;;;14.30;99.90;;;;;;5056995;28;20111;-71
2023/03/15 08:28:55;;;;;;;3.50;1.15;;;14.40;99.90;;;;;;5073033;28;20055;-70
2023/03/15 08:31:24;;;;;;;2.42;1.00;;;14.40;99.90;;;;;;5072909;28;20128;-70
2023/03/15 08:33:49;;;;;;;3.10;1.13;;;14.40;99.90;;;;;;5073170;28;20471;-75
2023/03/15 08:36:15;;;;;;;3.97;1.10;;;14.40;99.90;;;;;;5074569;28;20136;-71
2023/03/15 08:38:41;;;;;;;4.35;1.00;;;14.40;99.90;;;;;;5074299;28;20116;-70
2023/03/15 08:41:07;;;;;;;2.10;0.90;;;14.40;99.90;;;;;;5073331;28;20489;-69
2023/03/15 08:43:33;;;;;;;3.05;1.10;;;14.40;99.90;;;;;;5074286;28;20040;-70
2023/03/15 08:45:59;;;;;;;3.35;1.10;;;14.40;99.90;;;;;;5074276;28;20308;-70
2023/03/15 08:48:25;;;;;;;3.95;1.20;;;14.40;99.90;;;;;;5072993;28;20098;-70
2023/03/15 08:50:51;;;;;;;2.67;1.08;;;14.40;99.90;;;;;;5073536;28;20036;-70
2023/03/15 08:53:17;;;;;;;3.42;1.10;;;14.40;99.90;;;;;;5074067;28;20029;-69
2023/03/15 08:55:43;;;;;;;3.50;0.90;;;14.50;99.90;;;;;;5077075;28;20035;-70
2023/03/15 08:58:08;;;;;;;2.25;0.80;;;14.40;99.90;;;;;;5077202;28;20115;-72
2023/03/15 09:00:48;;;;;;;2.17;0.80;;;14.50;99.90;;;;;;5078095;28;20111;-70
2023/03/15 09:03:24;;;;;;;4.22;1.00;;;14.50;99.90;;;;;;5076335;28;20041;-70
2023/03/15 09:06:02;;;;;;;2.08;0.95;;;14.50;99.90;;;;;;5077867;28;20316;-71
2023/03/15 09:08:28;;;;;;;1.83;0.82;;;14.50;99.90;;;;;;5077558;28;20039;-70
2023/03/15 09:10:55;;;;;;;2.30;1.10;;;14.50;99.90;;;;;;5076509;28;20328;-78
2023/03/15 09:13:22;;;;;;;2.42;0.80;;;14.50;99.90;;;;;;5077195;28;20031;-70
2023/03/15 09:15:50;;;;;;;3.60;1.00;;;14.50;99.90;;;;;;5077598;28;20040;-71
2023/03/15 09:18:16;;;;;;;2.40;0.90;;;14.50;99.90;;;;;;5076117;28;20036;-70
2023/03/15 09:20:42;;;;;;;3.33;1.05;;;14.60;99.90;;;;;;5077590;28;20158;-70
2023/03/15 09:23:09;;;;;;;3.30;1.05;;;14.60;99.90;;;;;;5076122;28;20036;-70
2023/03/15 09:25:38;;;;;;;3.97;1.02;;;14.60;99.90;;;;;;5077537;28;20036;-70
2023/03/15 09:28:09;;;;;;;1.95;0.80;;;14.60;99.90;;;;;;5076922;28;20029;-70
2023/03/15 09:30:36;;;;;;;3.67;0.80;;;14.60;99.90;;;;;;5076499;28;20036;-69
2023/03/15 09:33:03;;;;;;;3.13;1.17;;;14.60;99.90;;;;;;5075759;28;20052;-70
2023/03/15 09:35:29;;;;;;;1.98;0.65;;;14.60;99.90;;;;;;5077383;28;20095;-69
2023/03/15 09:37:55;;;;;;;3.72;0.95;;;14.60;99.90;;;;;;5077168;28;20412;-70
2023/03/15 09:40:28;;;;;;;2.75;0.90;;;14.60;99.90;;;;;;5075890;28;20040;-69
2023/03/15 09:43:20;;;;;;;2.45;0.93;;;14.60;99.90;;;;;;5076899;28;20040;-69
2023/03/15 09:46:09;;;;;;;4.00;1.00;;;14.70;99.90;;;;;;5077143;28;20024;-70
2023/03/15 09:49:04;;;;;;;2.95;0.88;;;14.70;99.90;;;;;;5075195;28;20135;-69
2023/03/15 09:51:39;;;;;;;2.15;0.88;;;14.70;99.90;;;;;;5063919;28;20123;-70
2023/03/15 09:54:12;;;;;;;3.17;1.13;;;14.70;99.90;;;;;;5076396;28;20046;-69
2023/03/15 09:56:47;;;;;;;2.33;0.80;;;14.70;99.90;;;;;;5076760;28;20028;-70
2023/03/15 09:59:16;;;;;;;1.58;0.90;;;14.70;99.90;;;;;;5075976;28;20044;-69
2023/03/15 10:01:42;;;;;;;2.25;0.82;;;14.70;99.90;;;;;;5075872;28;20055;-69
2023/03/15 10:04:30;;;;;;;1.75;0.73;;;14.70;99.90;;;;;;5075244;28;20028;-69
2023/03/15 10:06:59;;;;;;;1.83;0.80;;;14.70;99.90;;;;;;5076404;28;20037;-69
2023/03/15 10:09:31;;;;;;;2.15;0.85;;;14.80;99.90;;;;;;5076083;28;20119;-69
2023/03/15 10:12:09;;;;;;;2.40;0.70;;;14.80;99.90;;;;;;5076508;28;20054;-69
2023/03/15 10:14:53;;;;;;;2.85;1.00;;;14.80;99.90;;;;;;5076271;28;20016;-69
2023/03/15 10:17:57;;;;;;;3.67;1.10;;;14.80;99.90;;;;;;5076309;28;20031;-70
2023/03/15 10:20:40;;;;;;;2.70;0.80;;;14.80;99.90;;;;;;5076205;28;20058;-69
2023/03/15 10:23:21;;;;;;;3.63;0.77;;;14.80;99.90;;;;;;5075849;28;20028;-70
2023/03/15 10:25:49;;;;;;;2.28;0.90;;;14.80;99.90;;;;;;5076320;28;20036;-70
2023/03/15 10:28:28;;;;;;;3.25;0.90;;;14.80;99.90;;;;;;5075634;28;20383;-70
2023/03/15 10:30:58;;;;;;;3.85;1.35;;;14.80;99.90;;;;;;5076143;28;20063;-70
2023/03/15 10:33:32;;;;;;;2.80;0.85;;;14.80;99.90;;;;;;5075100;28;20055;-70
2023/03/15 10:36:00;;;;;;;2.22;0.90;;;14.80;99.90;;;;;;5076259;28;20038;-71
2023/03/15 10:38:26;;;;;;;2.17;0.73;;;14.80;99.90;;;;;;5075533;28;20033;-70
2023/03/15 10:40:58;;;;;;;0.93;0.50;;;14.80;99.90;;;;;;5075684;28;20051;-70
2023/03/15 10:43:24;;;;;;;2.45;0.80;;;14.80;99.90;;;;;;5075497;28;20051;-69
2023/03/15 10:46:09;;;;;;;2.05;0.88;;;14.80;99.90;;;;;;5075869;28;20029;-70
2023/03/15 10:48:50;;;;;;;1.30;0.75;;;14.80;99.90;;;;;;5073814;28;20040;-69
2023/03/15 10:51:27;;;;;;;2.65;0.90;;;14.80;99.90;;;;;;5076427;28;20327;-69
2023/03/15 10:54:06;;;;;;;1.95;0.70;;;14.80;99.90;;;;;;5076152;28;20070;-70
2023/03/15 10:56:56;;;;;;;2.30;0.82;;;14.90;99.90;;;;;;5074436;28;20024;-69
2023/03/15 10:59:24;;;;;;;1.73;1.00;;;14.80;99.90;;;;;;5055596;28;20041;-69
2023/03/15 11:02:16;;;;;;;2.55;1.08;;;14.80;99.90;;;;;;5056389;28;20107;-70
2023/03/15 11:04:48;;;;;;;4.38;1.10;;;14.90;99.90;;;;;;5054828;28;20039;-70
2023/03/15 11:07:14;;;;;;;2.72;0.80;;;14.80;99.90;;;;;;5056102;28;20036;-69
2023/03/15 11:09:46;;;;;;;2.95;0.90;;;14.90;99.90;;;;;;5055021;28;20037;-69
2023/03/15 11:12:23;;;;;;;1.95;0.90;;;14.80;99.90;;;;;;5056054;28;20033;-69
2023/03/15 11:14:51;;;;;;;2.63;0.73;;;14.90;99.90;;;;;;5056006;28;20025;-69
2023/03/15 11:17:23;;;;;;;2.58;1.02;;;14.90;99.90;;;;;;5055593;28;20205;-69
2023/03/15 11:20:11;;;;;;;2.70;0.70;;;14.90;99.90;;;;;;5054087;28;20437;-69
2023/03/15 11:22:38;;;;;;;1.55;0.70;;;14.90;99.90;;;;;;5055873;28;20037;-70
2023/03/15 11:25:11;;;;;;;1.58;0.70;;;14.90;99.90;;;;;;5055914;28;20029;-69
2023/03/15 11:27:37;;;;;;;2.90;0.82;;;14.90;99.90;;;;;;5055790;28;20037;-70
2023/03/15 11:30:03;;;;;;;2.67;0.88;;;14.90;99.90;;;;;;5055826;28;20032;-69
2023/03/15 11:32:31;;;;;;;2.45;0.95;;;14.90;99.90;;;;;;5054911;28;20029;-70
2023/03/15 11:35:09;;;;;;;2.72;0.88;;;15.00;99.90;;;;;;5055364;28;20044;-70
2023/03/15 11:37:52;;;;;;;2.22;0.98;;;15.00;99.90;;;;;;5055658;28;20029;-70
2023/03/15 11:40:28;;;;;;;2.38;0.90;;;15.00;99.90;;;;;;5055548;28;20040;-69
2023/03/15 11:42:58;;;;;;;2.53;0.80;;;15.00;99.90;;;;;;5071190;28;20071;-69
2023/03/15 11:45:38;;;;;;;2.50;0.90;;;15.00;99.90;;;;;;5055492;28;20040;-69
2023/03/15 11:48:41;;;;;;;2.67;1.00;;;15.00;99.90;;;;;;5053998;28;20052;-69
2023/03/15 11:51:11;;;;;;;2.50;1.00;;;15.00;99.90;;;;;;5055698;28;20021;-69
2023/03/15 11:54:16;;;;;;;1.65;0.98;;;15.00;99.90;;;;;;5055508;28;20063;-69
2023/03/15 11:57:00;;;;;;;2.15;0.80;;;15.00;99.90;;;;;;5055486;28;20028;-70
2023/03/15 11:59:36;;;;;;;3.05;0.85;;;15.10;99.90;;;;;;5055088;28;20028;-70
2023/03/15 12:02:08;;;;;;;1.67;0.70;;;15.10;99.90;;;;;;5055703;28;20021;-70
2023/03/15 12:04:34;;;;;;;3.03;0.90;;;15.10;99.90;;;;;;5054090;28;20028;-69
2023/03/15 12:07:11;;;;;;;2.78;0.80;;;15.10;99.90;;;;;;5054413;28;20036;-69
2023/03/15 12:09:44;;;;;;;2.33;0.80;;;15.10;99.90;;;;;;5054914;28;20091;-70
2023/03/15 12:12:25;;;;;;;2.95;0.98;;;15.10;99.90;;;;;;5071336;28;20084;-69
2023/03/15 12:15:17;;;;;;;2.67;0.80;;;15.10;99.90;;;;;;5055341;28;20104;-69
2023/03/15 12:17:56;;;;;;;2.58;1.10;;;15.10;99.90;;;;;;5035212;28;20055;-70
2023/03/15 12:20:22;;;;;;;2.55;0.90;;;15.10;99.90;;;;;;5055193;28;20037;-69
2023/03/15 12:23:05;;;;;;;1.80;0.68;;;15.10;99.90;;;;;;5055133;28;20044;-70
2023/03/15 12:25:35;;;;;;;2.58;0.90;;;15.10;99.90;;;;;;5055283;28;20067;-69
2023/03/15 12:28:07;;;;;;;2.25;0.80;;;15.10;99.90;;;;;;5055053;28;20111;-69
2023/03/15 12:30:44;;;;;;;2.63;0.80;;;15.20;99.90;;;;;;5057818;28;20115;-69
2023/03/15 12:33:17;;;;;;;2.90;0.93;;;15.20;99.90;;;;;;5056979;28;20029;-69
2023/03/15 12:35:44;;;;;;;2.45;0.90;;;15.20;99.90;;;;;;5058239;28;20048;-69
2023/03/15 12:38:22;;;;;;;3.22;0.85;;;15.20;99.90;;;;;;5058816;28;20029;-70
2023/03/15 12:40:56;;;;;;;2.15;0.85;;;15.20;99.90;;;;;;5059078;28;20032;-70
2023/03/15 12:43:34;;;;;;;2.72;0.90;;;15.20;99.90;;;;;;5058509;28;20428;-69
2023/03/15 12:46:00;;;;;;;2.72;1.00;;;15.20;99.90;;;;;;5058971;28;20112;-69
2023/03/15 12:48:27;;;;;;;3.05;0.90;;;15.20;99.90;;;;;;5057110;28;20148;-70
2023/03/15 12:50:56;;;;;;;2.63;0.93;;;15.30;99.90;;;;;;5058781;28;20040;-70
2023/03/15 12:53:35;;;;;;;2.05;0.82;;;15.20;99.90;;;;;;5058312;28;20060;-69
2023/03/15 12:56:39;;;;;;;2.92;0.90;;;15.30;99.90;;;;;;5058787;28;20025;-70
2023/03/15 12:59:17;;;;;;;2.72;0.82;;;15.20;99.90;;;;;;5058400;28;20024;-70
2023/03/15 13:01:44;;;;;;;3.40;1.00;;;15.30;99.90;;;;;;5058474;28;20081;-69
2023/03/15 13:04:12;;;;;;;3.47;1.20;;;15.30;99.90;;;;;;5057293;28;20416;-70
2023/03/15 13:06:47;;;;;;;1.70;0.88;;;15.30;99.90;;;;;;5073911;28;20037;-69
2023/03/15 13:09:18;;;;;;;2.75;0.88;;;15.30;99.90;;;;;;5058310;28;20032;-70
2023/03/15 13:12:23;;;;;;;1.77;0.70;;;15.30;99.90;;;;;;5073914;28;20070;-69